AKST,Max TemperatureF,Mean TemperatureF,Min TemperatureF,Max Dew PointF,MeanDew PointF,Min DewpointF,Max Humidity, Mean Humidity, Min Humidity, Max Sea Level PressureIn, Mean Sea Level PressureIn, Min Sea Level PressureIn, Max VisibilityMiles, Mean VisibilityMiles, Min VisibilityMiles, Max Wind SpeedMPH, Mean Wind SpeedMPH, Max Gust SpeedMPH,PrecipitationIn, CloudCover, Events, WindDirDegrees
2012-2-1,42,38,35,34,33,28,93,79,57,29.91,29.84,29.75,10,10,10,23,10,39,0.00,8,,122
2012-2-2,44,42,39,39,37,34,87,79,71,30.01,29.91,29.78,10,10,7,26,18,37,0.00,8,,126
2012-2-3,51,44,37,39,35,28,87,71,43,30.18,30.00,29.74,10,9,4,29,17,44,0.00,6,,131
2012-2-4,39,34,30,32,30,27,93,84,70,30.27,30.22,30.17,10,9,0,12,7,,0.00,4,,129
2012-2-5,42,38,35,36,31,28,87,72,61,30.17,30.09,30.04,10,10,10,8,3,,0.00,4,,166
2012-2-6,41,37,33,36,33,30,93,83,70,30.22,30.13,30.03,10,10,8,12,4,,0.00,5,,317
2012-2-7,42,38,33,36,30,28,87,77,57,29.96,29.85,29.78,10,10,10,8,2,,0.00,1,,134
2012-2-8,46,42,37,32,29,27,70,61,53,30.04,29.87,29.80,10,10,10,12,5,,0.00,6,,85
2012-2-9,51,44,37,39,34,30,87,75,53,30.14,29.87,29.69,10,10,10,18,6,32,0.00,5,,133
2012-2-10,44,38,33,36,33,28,93,85,57,30.14,30.10,30.04,10,10,10,13,7,17,0.00,1,,127
2012-2-11,46,39,32,36,30,27,87,70,57,30.02,29.92,29.78,10,10,10,17,9,29,0.00,3,,124
2012-2-12,39,37,35,36,34,30,93,85,75,30.07,29.93,29.77,10,10,5,13,5,18,0.00,7,,131
2012-2-13,39,37,35,34,30,27,93,77,61,30.19,30.11,29.95,10,10,10,16,9,21,0.00,4,,113
2012-2-14,39,34,30,30,28,27,87,76,61,30.12,30.03,29.92,10,10,10,14,5,,0.00,1,,135
2012-2-15,42,37,32,32,27,25,81,69,49,30.18,30.10,29.98,10,10,10,23,11,32,0.00,3,,113
2012-2-16,42,38,35,36,33,30,93,83,61,30.14,30.08,29.99,10,10,10,13,7,16,0.00,7,,119
2012-2-17,39,37,35,36,34,30,93,84,75,30.02,29.89,29.75,10,10,10,15,7,18,0.00,8,,74
2012-2-18,39,36,33,32,30,28,87,77,65,29.91,29.85,29.76,10,10,10,12,7,,0.00,8,,265
2012-2-19,41,37,33,34,31,30,93,79,70,29.83,29.74,29.68,10,9,3,17,10,22,0.00,7,Snow,94
2012-2-20,39,38,37,36,33,30,93,83,75,29.64,29.50,29.38,10,9,3,20,12,29,0.00,8,,104
2012-2-21,39,37,35,34,32,30,93,79,70,29.66,29.57,29.44,10,10,10,14,9,22,0.00,8,,134
2012-2-22,42,38,33,34,32,27,93,80,53,30.15,29.84,29.51,10,10,5,16,5,24,0.00,7,,264
2012-2-23,39,36,32,30,28,27,87,74,61,30.30,30.25,30.14,10,10,5,12,6,18,0.00,6,,149
2012-2-24,37,34,30,27,18,12,86,54,38,30.07,29.81,29.68,10,10,10,20,9,26,0.00,2,,84
2012-2-25,35,30,26,21,17,10,69,54,38,30.29,30.10,29.88,10,10,10,10,5,,0.00,0,,317
2012-2-26,33,28,23,25,18,16,80,66,52,30.46,30.40,30.25,10,10,6,13,7,18,0.00,5,,123
2012-2-27,35,34,32,30,27,25,87,77,70,30.13,29.75,29.49,10,6,3,25,18,33,0.00,8,,124
2012-2-28,39,36,33,30,28,27,87,73,61,29.56,29.52,29.48,10,10,4,18,10,24,0.00,7,,106
2012-2-29,37,32,28,27,24,19,86,73,48,29.70,29.56,29.49,10,10,10,7,3,,0.00,1,,242